Terminal Aerodrome Forecast
Issued by NWS

Home | Current Version | Previous Version | Text Only | Print | Product List | Glossary On
Versions: 1 2 3 4 5 6 7 8 9 10 11 12 13 14 15 16 17 18 19
000
FTUS41 KCAR 310527
TAFPQI
TAF
KPQI 310527Z 3106/0106 VRB03KT P6SM VCSH BKN100
     FM311200 21004KT P6SM VCSH BKN035
     FM311500 24006KT P6SM BKN040
     FM311700 26008KT P6SM BKN045
     FM312300 29004KT P6SM BKN250=

USA.gov is the U.S. government's official web portal to all federal, state and local government web resources and services.